sensor_id;sensor_type;location;lat;lon;timestamp;temperature;humidity
20891;DHT22;10605;52.968;8.844;2024-02-26T00:01:56;2.60;99.90
20891;DHT22;10605;52.968;8.844;2024-02-26T00:04:21;2.50;99.90
20891;DHT22;10605;52.968;8.844;2024-02-26T00:06:47;2.40;99.90
20891;DHT22;10605;52.968;8.844;2024-02-26T00:09:15;2.20;99.90
20891;DHT22;10605;52.968;8.844;2024-02-26T00:11:41;2.30;99.90
20891;DHT22;10605;52.968;8.844;2024-02-26T00:14:07;2.20;99.90
20891;DHT22;10605;52.968;8.844;2024-02-26T00:16:32;2.30;99.90
20891;DHT22;10605;52.968;8.844;2024-02-26T00:18:58;2.40;99.90
20891;DHT22;10605;52.968;8.844;2024-02-26T00:21:24;2.40;99.90
20891;DHT22;10605;52.968;8.844;2024-02-26T00:23:50;2.40;99.90
20891;DHT22;10605;52.968;8.844;2024-02-26T00:26:18;2.40;99.90
20891;DHT22;10605;52.968;8.844;2024-02-26T00:28:44;2.50;99.90
20891;DHT22;10605;52.968;8.844;2024-02-26T00:31:10;2.50;99.90
20891;DHT22;10605;52.968;8.844;2024-02-26T00:33:36;2.50;99.90
20891;DHT22;10605;52.968;8.844;2024-02-26T00:36:01;2.50;99.90
20891;DHT22;10605;52.968;8.844;2024-02-26T00:38:27;2.60;99.90
20891;DHT22;10605;52.968;8.844;2024-02-26T00:40:53;2.70;99.90
20891;DHT22;10605;52.968;8.844;2024-02-26T00:43:19;2.60;99.90
20891;DHT22;10605;52.968;8.844;2024-02-26T00:45:44;2.50;99.90
20891;DHT22;10605;52.968;8.844;2024-02-26T00:48:12;2.40;99.90
20891;DHT22;10605;52.968;8.844;2024-02-26T00:50:39;2.40;99.90
20891;DHT22;10605;52.968;8.844;2024-02-26T00:53:05;2.30;99.90
20891;DHT22;10605;52.968;8.844;2024-02-26T00:55:31;2.40;99.90
20891;DHT22;10605;52.968;8.844;2024-02-26T00:57:57;2.30;99.90
20891;DHT22;10605;52.968;8.844;2024-02-26T01:00:22;2.40;99.90
20891;DHT22;10605;52.968;8.844;2024-02-26T01:02:48;2.40;99.90
20891;DHT22;10605;52.968;8.844;2024-02-26T01:05:14;2.30;99.90
20891;DHT22;10605;52.968;8.844;2024-02-26T01:07:40;2.30;99.90
20891;DHT22;10605;52.968;8.844;2024-02-26T01:10:06;2.30;99.90
20891;DHT22;10605;52.968;8.844;2024-02-26T01:12:35;2.20;99.90
20891;DHT22;10605;52.968;8.844;2024-02-26T01:15:02;2.10;99.90
20891;DHT22;10605;52.968;8.844;2024-02-26T01:17:31;2.10;99.90
20891;DHT22;10605;52.968;8.844;2024-02-26T01:19:56;2.20;99.90
20891;DHT22;10605;52.968;8.844;2024-02-26T01:22:22;2.20;99.90
20891;DHT22;10605;52.968;8.844;2024-02-26T01:24:48;2.20;99.90
20891;DHT22;10605;52.968;8.844;2024-02-26T01:27:14;2.20;99.90
20891;DHT22;10605;52.968;8.844;2024-02-26T01:29:41;2.10;99.90
20891;DHT22;10605;52.968;8.844;2024-02-26T01:32:07;2.10;99.90
20891;DHT22;10605;52.968;8.844;2024-02-26T01:34:33;2.10;99.90
20891;DHT22;10605;52.968;8.844;2024-02-26T01:36:59;2.10;99.90
20891;DHT22;10605;52.968;8.844;2024-02-26T01:39:25;2.10;99.90
20891;DHT22;10605;52.968;8.844;2024-02-26T01:41:50;2.10;99.90
20891;DHT22;10605;52.968;8.844;2024-02-26T01:44:16;2.10;99.90
20891;DHT22;10605;52.968;8.844;2024-02-26T01:46:42;2.00;99.90
20891;DHT22;10605;52.968;8.844;2024-02-26T01:49:11;2.00;99.90
20891;DHT22;10605;52.968;8.844;2024-02-26T01:51:38;2.10;99.90
20891;DHT22;10605;52.968;8.844;2024-02-26T01:54:05;2.10;99.90
20891;DHT22;10605;52.968;8.844;2024-02-26T01:56:32;2.00;99.90
20891;DHT22;10605;52.968;8.844;2024-02-26T01:58:58;2.00;99.90
20891;DHT22;10605;52.968;8.844;2024-02-26T02:01:29;2.00;99.90
20891;DHT22;10605;52.968;8.844;2024-02-26T02:03:57;1.90;99.90
20891;DHT22;10605;52.968;8.844;2024-02-26T02:06:23;1.90;99.90
20891;DHT22;10605;52.968;8.844;2024-02-26T02:08:49;1.90;99.90
20891;DHT22;10605;52.968;8.844;2024-02-26T02:11:15;1.90;99.90
20891;DHT22;10605;52.968;8.844;2024-02-26T02:13:41;1.90;99.90
20891;DHT22;10605;52.968;8.844;2024-02-26T02:16:07;1.80;99.90
20891;DHT22;10605;52.968;8.844;2024-02-26T02:18:33;1.70;99.90
20891;DHT22;10605;52.968;8.844;2024-02-26T02:21:02;1.70;99.90
20891;DHT22;10605;52.968;8.844;2024-02-26T02:23:28;1.70;99.90
20891;DHT22;10605;52.968;8.844;2024-02-26T02:25:54;1.70;99.90
20891;DHT22;10605;52.968;8.844;2024-02-26T02:28:22;1.80;99.90
20891;DHT22;10605;52.968;8.844;2024-02-26T02:30:48;1.80;99.90
20891;DHT22;10605;52.968;8.844;2024-02-26T02:33:15;1.80;99.90
20891;DHT22;10605;52.968;8.844;2024-02-26T02:35:41;1.80;99.90
20891;DHT22;10605;52.968;8.844;2024-02-26T02:38:07;1.90;99.90
20891;DHT22;10605;52.968;8.844;2024-02-26T02:40:32;1.90;99.90
20891;DHT22;10605;52.968;8.844;2024-02-26T02:42:58;1.90;99.90
20891;DHT22;10605;52.968;8.844;2024-02-26T02:45:28;1.90;99.90
20891;DHT22;10605;52.968;8.844;2024-02-26T02:47:53;1.90;99.90
20891;DHT22;10605;52.968;8.844;2024-02-26T02:50:19;1.90;99.90
20891;DHT22;10605;52.968;8.844;2024-02-26T02:52:45;1.90;99.90
20891;DHT22;10605;52.968;8.844;2024-02-26T02:55:11;2.00;99.90
20891;DHT22;10605;52.968;8.844;2024-02-26T02:57:36;1.90;99.90
20891;DHT22;10605;52.968;8.844;2024-02-26T03:00:10;1.80;99.90
20891;DHT22;10605;52.968;8.844;2024-02-26T03:02:36;1.70;99.90
20891;DHT22;10605;52.968;8.844;2024-02-26T03:05:05;1.60;99.90
20891;DHT22;10605;52.968;8.844;2024-02-26T03:07:31;1.60;99.90
20891;DHT22;10605;52.968;8.844;2024-02-26T03:09:56;1.50;99.90
20891;DHT22;10605;52.968;8.844;2024-02-26T03:12:22;1.50;99.90
20891;DHT22;10605;52.968;8.844;2024-02-26T03:14:48;1.50;99.90
20891;DHT22;10605;52.968;8.844;2024-02-26T03:17:13;1.60;99.90
20891;DHT22;10605;52.968;8.844;2024-02-26T03:19:39;1.50;99.90
20891;DHT22;10605;52.968;8.844;2024-02-26T03:22:05;1.60;99.90
20891;DHT22;10605;52.968;8.844;2024-02-26T03:24:30;1.60;99.90
20891;DHT22;10605;52.968;8.844;2024-02-26T03:26:56;1.60;99.90
20891;DHT22;10605;52.968;8.844;2024-02-26T03:29:22;1.70;99.90
20891;DHT22;10605;52.968;8.844;2024-02-26T03:31:48;1.70;99.90
20891;DHT22;10605;52.968;8.844;2024-02-26T03:34:14;1.80;99.90
20891;DHT22;10605;52.968;8.844;2024-02-26T03:36:40;1.70;99.90
20891;DHT22;10605;52.968;8.844;2024-02-26T03:39:06;1.70;99.90
20891;DHT22;10605;52.968;8.844;2024-02-26T03:41:35;1.70;99.90
20891;DHT22;10605;52.968;8.844;2024-02-26T03:44:01;1.70;99.90
20891;DHT22;10605;52.968;8.844;2024-02-26T03:46:27;1.70;99.90
20891;DHT22;10605;52.968;8.844;2024-02-26T03:48:53;1.80;99.90
20891;DHT22;10605;52.968;8.844;2024-02-26T03:51:19;1.80;99.90
20891;DHT22;10605;52.968;8.844;2024-02-26T03:53:44;1.70;99.90
20891;DHT22;10605;52.968;8.844;2024-02-26T03:56:12;1.60;99.90
20891;DHT22;10605;52.968;8.844;2024-02-26T03:58:41;1.60;99.90
20891;DHT22;10605;52.968;8.844;2024-02-26T04:01:08;1.60;99.90
20891;DHT22;10605;52.968;8.844;2024-02-26T04:03:34;1.60;99.90
20891;DHT22;10605;52.968;8.844;2024-02-26T04:06:00;1.60;99.90
20891;DHT22;10605;52.968;8.844;2024-02-26T04:08:26;1.60;99.90
20891;DHT22;10605;52.968;8.844;2024-02-26T04:10:52;1.70;99.90
20891;DHT22;10605;52.968;8.844;2024-02-26T04:13:17;1.70;99.90
20891;DHT22;10605;52.968;8.844;2024-02-26T04:15:43;1.70;99.90
20891;DHT22;10605;52.968;8.844;2024-02-26T04:18:09;1.80;99.90
20891;DHT22;10605;52.968;8.844;2024-02-26T04:20:35;1.80;99.90
20891;DHT22;10605;52.968;8.844;2024-02-26T04:23:00;1.90;99.90
20891;DHT22;10605;52.968;8.844;2024-02-26T04:25:26;1.80;99.90
20891;DHT22;10605;52.968;8.844;2024-02-26T04:27:52;1.80;99.90
20891;DHT22;10605;52.968;8.844;2024-02-26T04:30:18;1.80;99.90
20891;DHT22;10605;52.968;8.844;2024-02-26T04:32:43;1.80;99.90
20891;DHT22;10605;52.968;8.844;2024-02-26T04:35:09;1.90;99.90
20891;DHT22;10605;52.968;8.844;2024-02-26T04:37:35;1.90;99.90
20891;DHT22;10605;52.968;8.844;2024-02-26T04:40:01;1.90;99.90
20891;DHT22;10605;52.968;8.844;2024-02-26T04:42:27;1.90;99.90
20891;DHT22;10605;52.968;8.844;2024-02-26T04:44:53;2.00;99.90
20891;DHT22;10605;52.968;8.844;2024-02-26T04:47:19;2.00;99.90
20891;DHT22;10605;52.968;8.844;2024-02-26T04:49:45;2.10;99.90
20891;DHT22;10605;52.968;8.844;2024-02-26T04:52:11;2.10;99.90
20891;DHT22;10605;52.968;8.844;2024-02-26T04:54:37;2.10;99.90
20891;DHT22;10605;52.968;8.844;2024-02-26T04:57:03;2.10;99.90
20891;DHT22;10605;52.968;8.844;2024-02-26T04:59:29;2.10;99.90
20891;DHT22;10605;52.968;8.844;2024-02-26T05:01:55;2.10;99.90
20891;DHT22;10605;52.968;8.844;2024-02-26T05:04:20;2.10;99.90
20891;DHT22;10605;52.968;8.844;2024-02-26T05:06:46;2.20;99.90
20891;DHT22;10605;52.968;8.844;2024-02-26T05:09:12;2.20;99.90
20891;DHT22;10605;52.968;8.844;2024-02-26T05:11:38;2.20;99.90
20891;DHT22;10605;52.968;8.844;2024-02-26T05:14:03;2.30;99.90
20891;DHT22;10605;52.968;8.844;2024-02-26T05:16:29;2.30;99.90
20891;DHT22;10605;52.968;8.844;2024-02-26T05:18:56;2.30;99.90
20891;DHT22;10605;52.968;8.844;2024-02-26T05:21:24;2.30;99.90
20891;DHT22;10605;52.968;8.844;2024-02-26T05:23:50;2.30;99.90
20891;DHT22;10605;52.968;8.844;2024-02-26T05:26:22;2.20;99.90
20891;DHT22;10605;52.968;8.844;2024-02-26T05:28:48;2.10;99.90
20891;DHT22;10605;52.968;8.844;2024-02-26T05:31:14;2.20;99.90
20891;DHT22;10605;52.968;8.844;2024-02-26T05:33:40;2.20;99.90
20891;DHT22;10605;52.968;8.844;2024-02-26T05:36:06;2.20;99.90
20891;DHT22;10605;52.968;8.844;2024-02-26T05:38:32;2.30;99.90
20891;DHT22;10605;52.968;8.844;2024-02-26T05:41:00;2.30;99.90
20891;DHT22;10605;52.968;8.844;2024-02-26T05:43:26;2.30;99.90
20891;DHT22;10605;52.968;8.844;2024-02-26T05:45:52;2.30;99.90
20891;DHT22;10605;52.968;8.844;2024-02-26T05:48:19;2.30;99.90
20891;DHT22;10605;52.968;8.844;2024-02-26T05:50:45;2.40;99.90
20891;DHT22;10605;52.968;8.844;2024-02-26T05:53:11;2.40;99.90
20891;DHT22;10605;52.968;8.844;2024-02-26T05:55:37;2.40;99.90
20891;DHT22;10605;52.968;8.844;2024-02-26T05:58:03;2.40;99.90
20891;DHT22;10605;52.968;8.844;2024-02-26T06:00:29;2.30;99.90
20891;DHT22;10605;52.968;8.844;2024-02-26T06:02:54;2.30;99.90
20891;DHT22;10605;52.968;8.844;2024-02-26T06:05:20;2.40;99.90
20891;DHT22;10605;52.968;8.844;2024-02-26T06:07:45;2.40;99.90
20891;DHT22;10605;52.968;8.844;2024-02-26T06:10:11;2.40;99.90
20891;DHT22;10605;52.968;8.844;2024-02-26T06:12:39;2.40;99.90
20891;DHT22;10605;52.968;8.844;2024-02-26T06:15:06;2.40;99.90
20891;DHT22;10605;52.968;8.844;2024-02-26T06:17:31;2.40;99.90
20891;DHT22;10605;52.968;8.844;2024-02-26T06:19:57;2.50;99.90
20891;DHT22;10605;52.968;8.844;2024-02-26T06:22:24;2.50;99.90
20891;DHT22;10605;52.968;8.844;2024-02-26T06:24:50;2.50;99.90
20891;DHT22;10605;52.968;8.844;2024-02-26T06:27:16;2.60;99.90
20891;DHT22;10605;52.968;8.844;2024-02-26T06:29:42;2.60;99.90
20891;DHT22;10605;52.968;8.844;2024-02-26T06:32:07;2.60;99.90
20891;DHT22;10605;52.968;8.844;2024-02-26T06:34:33;2.60;99.90
20891;DHT22;10605;52.968;8.844;2024-02-26T06:36:58;2.70;99.90
20891;DHT22;10605;52.968;8.844;2024-02-26T06:39:24;2.70;99.90
20891;DHT22;10605;52.968;8.844;2024-02-26T06:41:50;2.70;99.90
20891;DHT22;10605;52.968;8.844;2024-02-26T06:44:15;2.70;99.90
20891;DHT22;10605;52.968;8.844;2024-02-26T06:46:41;2.80;99.90
20891;DHT22;10605;52.968;8.844;2024-02-26T06:49:07;2.80;99.90
20891;DHT22;10605;52.968;8.844;2024-02-26T06:51:32;2.90;99.90
20891;DHT22;10605;52.968;8.844;2024-02-26T06:53:58;2.90;99.90
20891;DHT22;10605;52.968;8.844;2024-02-26T06:56:24;3.00;99.90
20891;DHT22;10605;52.968;8.844;2024-02-26T06:58:49;3.00;99.90
20891;DHT22;10605;52.968;8.844;2024-02-26T07:01:15;3.10;99.90
20891;DHT22;10605;52.968;8.844;2024-02-26T07:03:41;3.10;99.90
20891;DHT22;10605;52.968;8.844;2024-02-26T07:06:06;3.20;99.90
20891;DHT22;10605;52.968;8.844;2024-02-26T07:08:32;3.30;99.90
20891;DHT22;10605;52.968;8.844;2024-02-26T07:10:58;3.30;99.90
20891;DHT22;10605;52.968;8.844;2024-02-26T07:13:23;3.40;99.90
20891;DHT22;10605;52.968;8.844;2024-02-26T07:15:49;3.40;99.90
20891;DHT22;10605;52.968;8.844;2024-02-26T07:18:15;3.50;99.90
20891;DHT22;10605;52.968;8.844;2024-02-26T07:20:40;3.50;99.90
20891;DHT22;10605;52.968;8.844;2024-02-26T07:23:06;3.60;99.90
20891;DHT22;10605;52.968;8.844;2024-02-26T07:25:32;3.60;99.90
20891;DHT22;10605;52.968;8.844;2024-02-26T07:27:58;3.70;99.90
20891;DHT22;10605;52.968;8.844;2024-02-26T07:30:23;3.70;99.90
20891;DHT22;10605;52.968;8.844;2024-02-26T07:32:50;3.70;99.90
20891;DHT22;10605;52.968;8.844;2024-02-26T07:35:16;3.80;99.90
20891;DHT22;10605;52.968;8.844;2024-02-26T07:37:43;3.80;99.90
20891;DHT22;10605;52.968;8.844;2024-02-26T07:40:09;3.80;99.90
20891;DHT22;10605;52.968;8.844;2024-02-26T07:42:35;3.90;99.90
20891;DHT22;10605;52.968;8.844;2024-02-26T07:45:01;3.90;99.90
20891;DHT22;10605;52.968;8.844;2024-02-26T07:47:27;4.00;99.90
20891;DHT22;10605;52.968;8.844;2024-02-26T07:49:53;4.00;99.90
20891;DHT22;10605;52.968;8.844;2024-02-26T07:52:18;4.00;99.90
20891;DHT22;10605;52.968;8.844;2024-02-26T07:54:44;4.00;99.90
20891;DHT22;10605;52.968;8.844;2024-02-26T07:57:10;4.10;99.90
20891;DHT22;10605;52.968;8.844;2024-02-26T07:59:35;4.10;99.90
20891;DHT22;10605;52.968;8.844;2024-02-26T08:02:01;4.10;99.90
20891;DHT22;10605;52.968;8.844;2024-02-26T08:04:29;4.10;99.90
20891;DHT22;10605;52.968;8.844;2024-02-26T08:06:54;4.20;99.90
20891;DHT22;10605;52.968;8.844;2024-02-26T08:09:20;4.20;99.90
20891;DHT22;10605;52.968;8.844;2024-02-26T08:11:45;4.20;99.90
20891;DHT22;10605;52.968;8.844;2024-02-26T08:14:11;4.20;99.90
20891;DHT22;10605;52.968;8.844;2024-02-26T08:16:37;4.30;99.90
20891;DHT22;10605;52.968;8.844;2024-02-26T08:19:02;4.30;99.90
20891;DHT22;10605;52.968;8.844;2024-02-26T08:21:28;4.40;99.90
20891;DHT22;10605;52.968;8.844;2024-02-26T08:23:54;4.40;99.90
20891;DHT22;10605;52.968;8.844;2024-02-26T08:26:20;4.40;99.90
20891;DHT22;10605;52.968;8.844;2024-02-26T08:28:47;4.50;99.90
20891;DHT22;10605;52.968;8.844;2024-02-26T08:31:14;4.60;99.90
20891;DHT22;10605;52.968;8.844;2024-02-26T08:33:40;4.60;99.90
20891;DHT22;10605;52.968;8.844;2024-02-26T08:36:06;4.70;99.90
20891;DHT22;10605;52.968;8.844;2024-02-26T08:38:32;4.80;99.90
20891;DHT22;10605;52.968;8.844;2024-02-26T08:41:00;4.90;99.90
20891;DHT22;10605;52.968;8.844;2024-02-26T08:43:26;5.20;99.90
20891;DHT22;10605;52.968;8.844;2024-02-26T08:45:52;5.40;99.90
20891;DHT22;10605;52.968;8.844;2024-02-26T08:48:18;5.60;99.90
20891;DHT22;10605;52.968;8.844;2024-02-26T08:50:44;5.80;99.90
20891;DHT22;10605;52.968;8.844;2024-02-26T08:53:09;6.10;99.90
20891;DHT22;10605;52.968;8.844;2024-02-26T08:55:35;6.30;99.90
20891;DHT22;10605;52.968;8.844;2024-02-26T08:58:01;6.30;99.90
20891;DHT22;10605;52.968;8.844;2024-02-26T09:00:26;6.50;99.90
20891;DHT22;10605;52.968;8.844;2024-02-26T09:02:52;6.80;99.90
20891;DHT22;10605;52.968;8.844;2024-02-26T09:05:18;6.80;99.90
20891;DHT22;10605;52.968;8.844;2024-02-26T09:07:43;7.00;99.90
20891;DHT22;10605;52.968;8.844;2024-02-26T09:10:09;6.70;99.90
20891;DHT22;10605;52.968;8.844;2024-02-26T09:12:37;6.50;99.90
20891;DHT22;10605;52.968;8.844;2024-02-26T09:15:03;6.70;99.90
20891;DHT22;10605;52.968;8.844;2024-02-26T09:17:29;6.90;99.90
20891;DHT22;10605;52.968;8.844;2024-02-26T09:19:55;7.20;99.90
20891;DHT22;10605;52.968;8.844;2024-02-26T09:22:20;7.30;99.90
20891;DHT22;10605;52.968;8.844;2024-02-26T09:24:46;7.30;99.90
20891;DHT22;10605;52.968;8.844;2024-02-26T09:27:12;7.70;99.90
20891;DHT22;10605;52.968;8.844;2024-02-26T09:29:37;7.90;99.90
20891;DHT22;10605;52.968;8.844;2024-02-26T09:32:03;8.00;99.90
20891;DHT22;10605;52.968;8.844;2024-02-26T09:34:29;8.20;99.90
20891;DHT22;10605;52.968;8.844;2024-02-26T09:36:55;8.50;99.90
20891;DHT22;10605;52.968;8.844;2024-02-26T09:39:20;8.40;99.90
20891;DHT22;10605;52.968;8.844;2024-02-26T09:41:47;8.60;99.90
20891;DHT22;10605;52.968;8.844;2024-02-26T09:44:19;8.10;99.90
20891;DHT22;10605;52.968;8.844;2024-02-26T09:46:47;8.40;99.90
20891;DHT22;10605;52.968;8.844;2024-02-26T09:49:15;8.30;99.90
20891;DHT22;10605;52.968;8.844;2024-02-26T09:51:41;8.40;99.90
20891;DHT22;10605;52.968;8.844;2024-02-26T09:54:09;8.30;99.90
20891;DHT22;10605;52.968;8.844;2024-02-26T09:56:37;8.10;99.90
20891;DHT22;10605;52.968;8.844;2024-02-26T09:59:07;8.10;99.90
20891;DHT22;10605;52.968;8.844;2024-02-26T10:01:36;8.10;99.90
20891;DHT22;10605;52.968;8.844;2024-02-26T10:04:04;7.80;99.90
20891;DHT22;10605;52.968;8.844;2024-02-26T10:06:30;7.80;99.90
20891;DHT22;10605;52.968;8.844;2024-02-26T10:08:56;8.00;99.90
20891;DHT22;10605;52.968;8.844;2024-02-26T10:11:24;8.20;99.90
20891;DHT22;10605;52.968;8.844;2024-02-26T10:13:50;8.40;99.90
20891;DHT22;10605;52.968;8.844;2024-02-26T10:16:16;8.40;99.90
20891;DHT22;10605;52.968;8.844;2024-02-26T10:18:51;8.10;99.90
20891;DHT22;10605;52.968;8.844;2024-02-26T10:21:22;8.20;99.90
20891;DHT22;10605;52.968;8.844;2024-02-26T10:23:48;8.20;99.90
20891;DHT22;10605;52.968;8.844;2024-02-26T10:26:16;8.00;99.90
20891;DHT22;10605;52.968;8.844;2024-02-26T10:28:43;8.20;99.90
20891;DHT22;10605;52.968;8.844;2024-02-26T10:31:10;8.10;99.90
20891;DHT22;10605;52.968;8.844;2024-02-26T10:33:37;8.40;99.90
20891;DHT22;10605;52.968;8.844;2024-02-26T10:36:04;8.60;99.90
20891;DHT22;10605;52.968;8.844;2024-02-26T10:38:32;8.60;99.90
20891;DHT22;10605;52.968;8.844;2024-02-26T10:40:58;8.70;99.90
20891;DHT22;10605;52.968;8.844;2024-02-26T10:43:25;9.00;99.90
20891;DHT22;10605;52.968;8.844;2024-02-26T10:45:51;9.00;99.90
20891;DHT22;10605;52.968;8.844;2024-02-26T10:48:17;9.00;99.90
20891;DHT22;10605;52.968;8.844;2024-02-26T10:50:44;9.00;99.90
20891;DHT22;10605;52.968;8.844;2024-02-26T10:53:30;9.00;99.90
20891;DHT22;10605;52.968;8.844;2024-02-26T10:56:04;9.00;99.90
20891;DHT22;10605;52.968;8.844;2024-02-26T10:58:31;9.00;99.90
20891;DHT22;10605;52.968;8.844;2024-02-26T11:00:57;9.10;99.90
20891;DHT22;10605;52.968;8.844;2024-02-26T11:03:25;9.40;99.90
20891;DHT22;10605;52.968;8.844;2024-02-26T11:05:52;9.40;99.90
20891;DHT22;10605;52.968;8.844;2024-02-26T11:08:21;9.70;99.90
20891;DHT22;10605;52.968;8.844;2024-02-26T11:10:52;9.90;99.90
20891;DHT22;10605;52.968;8.844;2024-02-26T11:13:19;10.00;99.90
20891;DHT22;10605;52.968;8.844;2024-02-26T11:15:48;9.70;99.90
20891;DHT22;10605;52.968;8.844;2024-02-26T11:18:15;9.40;99.90
20891;DHT22;10605;52.968;8.844;2024-02-26T11:20:42;9.70;99.90
20891;DHT22;10605;52.968;8.844;2024-02-26T11:23:08;9.90;99.90
20891;DHT22;10605;52.968;8.844;2024-02-26T11:25:35;9.80;99.90
20891;DHT22;10605;52.968;8.844;2024-02-26T11:28:05;9.80;99.90
20891;DHT22;10605;52.968;8.844;2024-02-26T11:30:36;10.00;99.90
20891;DHT22;10605;52.968;8.844;2024-02-26T11:33:08;9.90;99.90
20891;DHT22;10605;52.968;8.844;2024-02-26T11:35:37;9.60;99.90
20891;DHT22;10605;52.968;8.844;2024-02-26T11:38:03;9.90;99.90
20891;DHT22;10605;52.968;8.844;2024-02-26T11:40:32;9.70;99.90
20891;DHT22;10605;52.968;8.844;2024-02-26T11:42:58;10.00;99.90
20891;DHT22;10605;52.968;8.844;2024-02-26T11:48:22;9.90;99.90
20891;DHT22;10605;52.968;8.844;2024-02-26T11:50:57;9.80;99.90
20891;DHT22;10605;52.968;8.844;2024-02-26T11:59:00;9.90;99.90
20891;DHT22;10605;52.968;8.844;2024-02-26T12:04:14;10.40;99.90
20891;DHT22;10605;52.968;8.844;2024-02-26T12:06:46;10.40;99.90
20891;DHT22;10605;52.968;8.844;2024-02-26T12:09:12;10.40;99.90
20891;DHT22;10605;52.968;8.844;2024-02-26T12:11:39;10.30;99.90
20891;DHT22;10605;52.968;8.844;2024-02-26T12:14:09;10.50;99.90
20891;DHT22;10605;52.968;8.844;2024-02-26T12:16:38;10.50;99.90
20891;DHT22;10605;52.968;8.844;2024-02-26T12:19:07;10.40;99.90
20891;DHT22;10605;52.968;8.844;2024-02-26T12:21:37;10.20;99.90
20891;DHT22;10605;52.968;8.844;2024-02-26T12:24:14;10.50;99.90
20891;DHT22;10605;52.968;8.844;2024-02-26T12:26:41;10.70;99.90
20891;DHT22;10605;52.968;8.844;2024-02-26T12:29:07;10.90;99.90
20891;DHT22;10605;52.968;8.844;2024-02-26T12:31:33;11.30;99.90
20891;DHT22;10605;52.968;8.844;2024-02-26T12:34:00;11.60;99.90
20891;DHT22;10605;52.968;8.844;2024-02-26T12:36:26;11.30;99.90
20891;DHT22;10605;52.968;8.844;2024-02-26T12:38:52;11.10;99.90
20891;DHT22;10605;52.968;8.844;2024-02-26T12:41:18;11.30;99.90
20891;DHT22;10605;52.968;8.844;2024-02-26T12:43:44;11.30;99.90
20891;DHT22;10605;52.968;8.844;2024-02-26T12:46:10;11.20;99.90
20891;DHT22;10605;52.968;8.844;2024-02-26T12:48:36;11.30;99.90
20891;DHT22;10605;52.968;8.844;2024-02-26T12:51:03;10.90;99.90
20891;DHT22;10605;52.968;8.844;2024-02-26T12:53:30;10.60;99.90
20891;DHT22;10605;52.968;8.844;2024-02-26T12:55:56;10.40;99.90
20891;DHT22;10605;52.968;8.844;2024-02-26T12:58:22;10.40;99.90
20891;DHT22;10605;52.968;8.844;2024-02-26T13:00:52;10.40;99.90
20891;DHT22;10605;52.968;8.844;2024-02-26T13:03:18;10.40;99.90
20891;DHT22;10605;52.968;8.844;2024-02-26T13:05:45;10.10;99.90
20891;DHT22;10605;52.968;8.844;2024-02-26T13:08:17;10.10;99.90
20891;DHT22;10605;52.968;8.844;2024-02-26T13:10:45;9.90;99.90
20891;DHT22;10605;52.968;8.844;2024-02-26T13:13:10;9.60;99.90
20891;DHT22;10605;52.968;8.844;2024-02-26T13:15:36;9.70;99.90
20891;DHT22;10605;52.968;8.844;2024-02-26T13:18:10;9.70;99.90
20891;DHT22;10605;52.968;8.844;2024-02-26T13:20:35;9.60;99.90
20891;DHT22;10605;52.968;8.844;2024-02-26T13:23:04;9.80;99.90
20891;DHT22;10605;52.968;8.844;2024-02-26T13:25:31;10.20;99.90
20891;DHT22;10605;52.968;8.844;2024-02-26T13:28:13;10.10;99.90
20891;DHT22;10605;52.968;8.844;2024-02-26T13:30:41;10.00;99.90
20891;DHT22;10605;52.968;8.844;2024-02-26T13:33:09;9.90;99.90
20891;DHT22;10605;52.968;8.844;2024-02-26T13:35:35;9.80;99.90
20891;DHT22;10605;52.968;8.844;2024-02-26T13:38:02;9.80;99.90
20891;DHT22;10605;52.968;8.844;2024-02-26T13:40:28;9.80;99.90
20891;DHT22;10605;52.968;8.844;2024-02-26T13:42:54;9.70;99.90
20891;DHT22;10605;52.968;8.844;2024-02-26T13:45:20;9.60;99.90
20891;DHT22;10605;52.968;8.844;2024-02-26T13:47:46;9.60;99.90
20891;DHT22;10605;52.968;8.844;2024-02-26T13:50:12;9.80;99.90
20891;DHT22;10605;52.968;8.844;2024-02-26T13:52:37;9.80;99.90
20891;DHT22;10605;52.968;8.844;2024-02-26T13:55:03;9.70;99.90
20891;DHT22;10605;52.968;8.844;2024-02-26T13:57:29;9.80;99.90
20891;DHT22;10605;52.968;8.844;2024-02-26T13:59:55;9.40;99.90
20891;DHT22;10605;52.968;8.844;2024-02-26T14:02:21;9.30;99.90
20891;DHT22;10605;52.968;8.844;2024-02-26T14:04:47;9.30;99.90
20891;DHT22;10605;52.968;8.844;2024-02-26T14:07:12;9.20;99.90
20891;DHT22;10605;52.968;8.844;2024-02-26T14:09:38;9.20;99.90
20891;DHT22;10605;52.968;8.844;2024-02-26T14:12:04;9.00;99.90
20891;DHT22;10605;52.968;8.844;2024-02-26T14:14:30;9.10;99.90
20891;DHT22;10605;52.968;8.844;2024-02-26T14:16:58;9.10;99.90
20891;DHT22;10605;52.968;8.844;2024-02-26T14:19:24;8.90;99.90
20891;DHT22;10605;52.968;8.844;2024-02-26T14:21:50;8.90;99.90
20891;DHT22;10605;52.968;8.844;2024-02-26T14:24:15;8.80;99.90
20891;DHT22;10605;52.968;8.844;2024-02-26T14:26:41;8.90;99.90
20891;DHT22;10605;52.968;8.844;2024-02-26T14:29:07;8.90;99.90
20891;DHT22;10605;52.968;8.844;2024-02-26T14:31:33;9.00;99.90
20891;DHT22;10605;52.968;8.844;2024-02-26T14:33:59;8.70;99.90
20891;DHT22;10605;52.968;8.844;2024-02-26T14:36:25;8.80;99.90
20891;DHT22;10605;52.968;8.844;2024-02-26T14:38:51;8.70;99.90
20891;DHT22;10605;52.968;8.844;2024-02-26T14:41:16;8.70;99.90
20891;DHT22;10605;52.968;8.844;2024-02-26T14:43:42;8.60;99.90
20891;DHT22;10605;52.968;8.844;2024-02-26T14:46:08;8.50;99.90
20891;DHT22;10605;52.968;8.844;2024-02-26T14:48:33;8.40;99.90
20891;DHT22;10605;52.968;8.844;2024-02-26T14:50:59;8.40;99.90
20891;DHT22;10605;52.968;8.844;2024-02-26T14:53:26;8.30;99.90
20891;DHT22;10605;52.968;8.844;2024-02-26T14:55:52;8.40;99.90
20891;DHT22;10605;52.968;8.844;2024-02-26T14:58:17;8.20;99.90
20891;DHT22;10605;52.968;8.844;2024-02-26T15:00:43;8.20;99.90
20891;DHT22;10605;52.968;8.844;2024-02-26T15:03:09;8.10;99.90
20891;DHT22;10605;52.968;8.844;2024-02-26T15:05:35;8.10;99.90
20891;DHT22;10605;52.968;8.844;2024-02-26T15:08:01;8.10;99.90
20891;DHT22;10605;52.968;8.844;2024-02-26T15:10:28;8.10;99.90
20891;DHT22;10605;52.968;8.844;2024-02-26T15:12:54;8.10;99.90
20891;DHT22;10605;52.968;8.844;2024-02-26T15:15:23;8.20;99.90
20891;DHT22;10605;52.968;8.844;2024-02-26T15:17:49;8.10;99.90
20891;DHT22;10605;52.968;8.844;2024-02-26T15:20:15;8.10;99.90
20891;DHT22;10605;52.968;8.844;2024-02-26T15:22:41;8.10;99.90
20891;DHT22;10605;52.968;8.844;2024-02-26T15:25:07;8.10;99.90
20891;DHT22;10605;52.968;8.844;2024-02-26T15:27:33;7.90;99.90
20891;DHT22;10605;52.968;8.844;2024-02-26T15:30:00;7.80;99.90
20891;DHT22;10605;52.968;8.844;2024-02-26T15:32:26;7.80;99.90
20891;DHT22;10605;52.968;8.844;2024-02-26T15:34:53;7.70;99.90
20891;DHT22;10605;52.968;8.844;2024-02-26T15:37:19;7.70;99.90
20891;DHT22;10605;52.968;8.844;2024-02-26T15:39:44;7.70;99.90
20891;DHT22;10605;52.968;8.844;2024-02-26T15:42:11;7.60;99.90
20891;DHT22;10605;52.968;8.844;2024-02-26T15:44:38;7.50;99.90
20891;DHT22;10605;52.968;8.844;2024-02-26T15:47:04;7.50;99.90
20891;DHT22;10605;52.968;8.844;2024-02-26T15:49:30;7.50;99.90
20891;DHT22;10605;52.968;8.844;2024-02-26T15:51:56;7.40;99.90